sensor_id;sensor_type;location;lat;lon;timestamp;P1;durP1;ratioP1;P2;durP2;ratioP2
75823;SDS011;64457;51.976;9.834;2024-02-21T00:01:06;12.73;;;5.90;;
75823;SDS011;64457;51.976;9.834;2024-02-21T00:03:38;24.27;;;6.90;;
75823;SDS011;64457;51.976;9.834;2024-02-21T00:06:07;12.43;;;5.80;;
75823;SDS011;64457;51.976;9.834;2024-02-21T00:08:35;13.50;;;6.27;;
75823;SDS011;64457;51.976;9.834;2024-02-21T00:11:05;17.97;;;6.33;;
75823;SDS011;64457;51.976;9.834;2024-02-21T00:13:34;18.57;;;8.10;;
75823;SDS011;64457;51.976;9.834;2024-02-21T00:16:02;17.97;;;6.90;;
75823;SDS011;64457;51.976;9.834;2024-02-21T00:18:30;12.03;;;5.70;;
75823;SDS011;64457;51.976;9.834;2024-02-21T00:20:59;18.10;;;7.27;;
75823;SDS011;64457;51.976;9.834;2024-02-21T00:23:28;21.93;;;7.73;;
75823;SDS011;64457;51.976;9.834;2024-02-21T00:25:54;22.93;;;6.90;;
75823;SDS011;64457;51.976;9.834;2024-02-21T00:28:23;21.67;;;8.07;;
75823;SDS011;64457;51.976;9.834;2024-02-21T00:30:51;18.73;;;8.63;;
75823;SDS011;64457;51.976;9.834;2024-02-21T00:33:19;20.97;;;8.60;;
75823;SDS011;64457;51.976;9.834;2024-02-21T00:35:47;16.57;;;8.50;;
75823;SDS011;64457;51.976;9.834;2024-02-21T00:38:16;28.53;;;8.37;;
75823;SDS011;64457;51.976;9.834;2024-02-21T00:40:44;18.03;;;7.70;;
75823;SDS011;64457;51.976;9.834;2024-02-21T00:43:11;20.77;;;9.47;;
75823;SDS011;64457;51.976;9.834;2024-02-21T00:45:39;21.70;;;9.67;;
75823;SDS011;64457;51.976;9.834;2024-02-21T00:48:07;22.30;;;8.97;;
75823;SDS011;64457;51.976;9.834;2024-02-21T00:50:34;21.80;;;9.70;;
75823;SDS011;64457;51.976;9.834;2024-02-21T00:53:03;22.50;;;9.10;;
75823;SDS011;64457;51.976;9.834;2024-02-21T00:55:32;14.50;;;8.50;;
75823;SDS011;64457;51.976;9.834;2024-02-21T00:58:00;21.10;;;9.70;;
75823;SDS011;64457;51.976;9.834;2024-02-21T01:00:27;18.50;;;9.60;;
75823;SDS011;64457;51.976;9.834;2024-02-21T01:02:56;20.83;;;8.83;;
75823;SDS011;64457;51.976;9.834;2024-02-21T01:05:26;19.50;;;9.53;;
75823;SDS011;64457;51.976;9.834;2024-02-21T01:07:54;22.83;;;10.17;;
75823;SDS011;64457;51.976;9.834;2024-02-21T01:10:23;19.57;;;9.27;;
75823;SDS011;64457;51.976;9.834;2024-02-21T01:12:52;22.50;;;10.17;;
75823;SDS011;64457;51.976;9.834;2024-02-21T01:15:19;22.97;;;9.43;;
75823;SDS011;64457;51.976;9.834;2024-02-21T01:17:47;23.43;;;9.93;;
75823;SDS011;64457;51.976;9.834;2024-02-21T01:20:16;15.97;;;9.70;;
75823;SDS011;64457;51.976;9.834;2024-02-21T01:22:44;24.20;;;9.87;;
75823;SDS011;64457;51.976;9.834;2024-02-21T01:25:11;21.80;;;9.90;;
75823;SDS011;64457;51.976;9.834;2024-02-21T01:27:39;20.53;;;10.40;;
75823;SDS011;64457;51.976;9.834;2024-02-21T01:30:14;32.47;;;11.07;;
75823;SDS011;64457;51.976;9.834;2024-02-21T01:32:42;24.00;;;9.27;;
75823;SDS011;64457;51.976;9.834;2024-02-21T01:35:10;20.53;;;9.33;;
75823;SDS011;64457;51.976;9.834;2024-02-21T01:37:37;25.43;;;11.47;;
75823;SDS011;64457;51.976;9.834;2024-02-21T01:40:07;18.23;;;10.60;;
75823;SDS011;64457;51.976;9.834;2024-02-21T01:42:37;24.03;;;10.63;;
75823;SDS011;64457;51.976;9.834;2024-02-21T01:45:06;21.80;;;11.07;;
75823;SDS011;64457;51.976;9.834;2024-02-21T01:47:36;22.90;;;10.93;;
75823;SDS011;64457;51.976;9.834;2024-02-21T01:50:04;26.23;;;10.70;;
75823;SDS011;64457;51.976;9.834;2024-02-21T01:52:33;26.17;;;10.70;;
75823;SDS011;64457;51.976;9.834;2024-02-21T01:55:01;20.37;;;11.63;;
75823;SDS011;64457;51.976;9.834;2024-02-21T01:57:30;23.37;;;10.97;;
75823;SDS011;64457;51.976;9.834;2024-02-21T01:59:58;27.40;;;11.17;;
75823;SDS011;64457;51.976;9.834;2024-02-21T02:02:26;21.07;;;10.77;;
75823;SDS011;64457;51.976;9.834;2024-02-21T02:04:56;28.60;;;12.03;;
75823;SDS011;64457;51.976;9.834;2024-02-21T02:07:25;26.57;;;11.63;;
75823;SDS011;64457;51.976;9.834;2024-02-21T02:09:52;20.77;;;11.67;;
75823;SDS011;64457;51.976;9.834;2024-02-21T02:12:20;27.60;;;11.40;;
75823;SDS011;64457;51.976;9.834;2024-02-21T02:14:57;20.23;;;10.80;;
75823;SDS011;64457;51.976;9.834;2024-02-21T02:17:25;21.73;;;10.17;;
75823;SDS011;64457;51.976;9.834;2024-02-21T02:19:53;20.10;;;10.40;;
75823;SDS011;64457;51.976;9.834;2024-02-21T02:22:22;22.40;;;11.20;;
75823;SDS011;64457;51.976;9.834;2024-02-21T02:24:57;24.07;;;12.10;;
75823;SDS011;64457;51.976;9.834;2024-02-21T02:27:25;27.37;;;11.07;;
75823;SDS011;64457;51.976;9.834;2024-02-21T02:29:52;28.03;;;10.40;;
75823;SDS011;64457;51.976;9.834;2024-02-21T02:32:20;25.70;;;11.17;;
75823;SDS011;64457;51.976;9.834;2024-02-21T02:34:48;21.43;;;11.70;;
75823;SDS011;64457;51.976;9.834;2024-02-21T02:37:17;30.67;;;11.43;;
75823;SDS011;64457;51.976;9.834;2024-02-21T02:39:47;19.77;;;10.87;;
75823;SDS011;64457;51.976;9.834;2024-02-21T02:42:16;30.83;;;11.97;;
75823;SDS011;64457;51.976;9.834;2024-02-21T02:44:43;30.83;;;11.50;;
75823;SDS011;64457;51.976;9.834;2024-02-21T02:47:11;22.43;;;11.80;;
75823;SDS011;64457;51.976;9.834;2024-02-21T02:49:38;34.07;;;11.70;;
75823;SDS011;64457;51.976;9.834;2024-02-21T02:52:05;26.30;;;11.97;;
75823;SDS011;64457;51.976;9.834;2024-02-21T02:54:33;26.10;;;11.87;;
75823;SDS011;64457;51.976;9.834;2024-02-21T02:57:02;21.17;;;11.07;;
75823;SDS011;64457;51.976;9.834;2024-02-21T02:59:37;23.37;;;11.67;;
75823;SDS011;64457;51.976;9.834;2024-02-21T03:02:04;21.13;;;11.50;;
75823;SDS011;64457;51.976;9.834;2024-02-21T03:04:32;23.17;;;11.30;;
75823;SDS011;64457;51.976;9.834;2024-02-21T03:07:00;20.40;;;11.63;;
75823;SDS011;64457;51.976;9.834;2024-02-21T03:09:28;31.40;;;12.20;;
75823;SDS011;64457;51.976;9.834;2024-02-21T03:11:55;26.80;;;11.13;;
75823;SDS011;64457;51.976;9.834;2024-02-21T03:14:27;20.77;;;12.07;;
75823;SDS011;64457;51.976;9.834;2024-02-21T03:16:56;25.63;;;12.33;;
75823;SDS011;64457;51.976;9.834;2024-02-21T03:19:25;30.10;;;11.60;;
75823;SDS011;64457;51.976;9.834;2024-02-21T03:21:52;24.10;;;11.50;;
75823;SDS011;64457;51.976;9.834;2024-02-21T03:24:19;24.97;;;11.17;;
75823;SDS011;64457;51.976;9.834;2024-02-21T03:26:48;23.17;;;11.97;;
75823;SDS011;64457;51.976;9.834;2024-02-21T03:29:16;20.20;;;10.63;;
75823;SDS011;64457;51.976;9.834;2024-02-21T03:31:43;24.60;;;11.93;;
75823;SDS011;64457;51.976;9.834;2024-02-21T03:34:12;28.10;;;11.57;;
75823;SDS011;64457;51.976;9.834;2024-02-21T03:36:41;23.70;;;10.90;;
75823;SDS011;64457;51.976;9.834;2024-02-21T03:39:08;22.33;;;11.07;;
75823;SDS011;64457;51.976;9.834;2024-02-21T03:41:36;21.80;;;10.57;;
75823;SDS011;64457;51.976;9.834;2024-02-21T03:44:03;24.43;;;10.53;;
75823;SDS011;64457;51.976;9.834;2024-02-21T03:46:31;29.80;;;11.30;;
75823;SDS011;64457;51.976;9.834;2024-02-21T03:48:58;21.53;;;11.60;;
75823;SDS011;64457;51.976;9.834;2024-02-21T03:51:28;17.60;;;10.60;;
75823;SDS011;64457;51.976;9.834;2024-02-21T03:53:55;20.47;;;10.37;;
75823;SDS011;64457;51.976;9.834;2024-02-21T03:56:22;33.03;;;10.47;;
75823;SDS011;64457;51.976;9.834;2024-02-21T03:58:50;17.10;;;9.60;;
75823;SDS011;64457;51.976;9.834;2024-02-21T04:01:17;17.70;;;9.43;;
75823;SDS011;64457;51.976;9.834;2024-02-21T04:03:45;26.00;;;10.70;;
75823;SDS011;64457;51.976;9.834;2024-02-21T04:06:12;20.20;;;9.80;;
75823;SDS011;64457;51.976;9.834;2024-02-21T04:08:41;16.43;;;9.60;;
75823;SDS011;64457;51.976;9.834;2024-02-21T04:11:08;23.57;;;10.00;;
75823;SDS011;64457;51.976;9.834;2024-02-21T04:13:36;20.10;;;9.03;;
75823;SDS011;64457;51.976;9.834;2024-02-21T04:16:04;18.70;;;9.60;;
75823;SDS011;64457;51.976;9.834;2024-02-21T04:18:32;22.90;;;10.50;;
75823;SDS011;64457;51.976;9.834;2024-02-21T04:20:59;14.50;;;8.97;;
75823;SDS011;64457;51.976;9.834;2024-02-21T04:23:27;16.93;;;9.10;;
75823;SDS011;64457;51.976;9.834;2024-02-21T04:25:56;19.60;;;9.03;;
75823;SDS011;64457;51.976;9.834;2024-02-21T04:28:23;18.60;;;10.23;;
75823;SDS011;64457;51.976;9.834;2024-02-21T04:30:50;24.70;;;9.63;;
75823;SDS011;64457;51.976;9.834;2024-02-21T04:33:18;23.03;;;10.43;;
75823;SDS011;64457;51.976;9.834;2024-02-21T04:35:46;20.30;;;10.47;;
75823;SDS011;64457;51.976;9.834;2024-02-21T04:38:14;16.00;;;9.60;;
75823;SDS011;64457;51.976;9.834;2024-02-21T04:40:43;24.47;;;10.47;;
75823;SDS011;64457;51.976;9.834;2024-02-21T04:43:16;21.07;;;9.83;;
75823;SDS011;64457;51.976;9.834;2024-02-21T04:45:44;20.80;;;9.50;;
75823;SDS011;64457;51.976;9.834;2024-02-21T04:48:11;14.87;;;9.00;;
75823;SDS011;64457;51.976;9.834;2024-02-21T04:50:39;19.87;;;9.80;;
75823;SDS011;64457;51.976;9.834;2024-02-21T04:53:06;18.37;;;9.10;;
75823;SDS011;64457;51.976;9.834;2024-02-21T04:55:34;19.63;;;8.87;;
75823;SDS011;64457;51.976;9.834;2024-02-21T04:58:02;22.53;;;9.60;;
75823;SDS011;64457;51.976;9.834;2024-02-21T05:00:31;21.23;;;9.43;;
75823;SDS011;64457;51.976;9.834;2024-02-21T05:02:59;15.00;;;9.40;;
75823;SDS011;64457;51.976;9.834;2024-02-21T05:05:26;17.80;;;10.03;;
75823;SDS011;64457;51.976;9.834;2024-02-21T05:07:54;16.50;;;9.20;;
75823;SDS011;64457;51.976;9.834;2024-02-21T05:10:21;19.20;;;8.80;;
75823;SDS011;64457;51.976;9.834;2024-02-21T05:12:49;15.40;;;8.30;;
75823;SDS011;64457;51.976;9.834;2024-02-21T05:15:16;16.53;;;8.70;;
75823;SDS011;64457;51.976;9.834;2024-02-21T05:17:45;14.57;;;8.50;;
75823;SDS011;64457;51.976;9.834;2024-02-21T05:20:13;18.87;;;8.50;;
75823;SDS011;64457;51.976;9.834;2024-02-21T05:22:40;20.67;;;8.70;;
75823;SDS011;64457;51.976;9.834;2024-02-21T05:25:09;20.23;;;8.30;;
75823;SDS011;64457;51.976;9.834;2024-02-21T05:27:39;16.10;;;8.33;;
75823;SDS011;64457;51.976;9.834;2024-02-21T05:30:07;19.80;;;8.00;;
75823;SDS011;64457;51.976;9.834;2024-02-21T05:32:35;20.80;;;9.50;;
75823;SDS011;64457;51.976;9.834;2024-02-21T05:35:04;17.43;;;9.17;;
75823;SDS011;64457;51.976;9.834;2024-02-21T05:37:33;14.70;;;9.23;;
75823;SDS011;64457;51.976;9.834;2024-02-21T05:40:00;22.47;;;9.43;;
75823;SDS011;64457;51.976;9.834;2024-02-21T05:42:28;22.73;;;8.90;;
75823;SDS011;64457;51.976;9.834;2024-02-21T05:44:55;15.50;;;8.10;;
75823;SDS011;64457;51.976;9.834;2024-02-21T05:47:23;21.93;;;9.20;;
75823;SDS011;64457;51.976;9.834;2024-02-21T05:49:50;18.30;;;9.00;;
75823;SDS011;64457;51.976;9.834;2024-02-21T05:52:21;14.20;;;8.87;;
75823;SDS011;64457;51.976;9.834;2024-02-21T05:54:48;17.70;;;8.70;;
75823;SDS011;64457;51.976;9.834;2024-02-21T05:57:16;16.50;;;8.77;;
75823;SDS011;64457;51.976;9.834;2024-02-21T05:59:44;22.10;;;9.77;;
75823;SDS011;64457;51.976;9.834;2024-02-21T06:02:12;20.90;;;8.53;;
75823;SDS011;64457;51.976;9.834;2024-02-21T06:04:39;18.37;;;9.20;;
75823;SDS011;64457;51.976;9.834;2024-02-21T06:07:08;18.47;;;9.40;;
75823;SDS011;64457;51.976;9.834;2024-02-21T06:09:38;18.67;;;8.63;;
75823;SDS011;64457;51.976;9.834;2024-02-21T06:12:06;16.93;;;7.60;;
75823;SDS011;64457;51.976;9.834;2024-02-21T06:14:34;23.00;;;9.67;;
75823;SDS011;64457;51.976;9.834;2024-02-21T06:17:02;14.37;;;8.50;;
75823;SDS011;64457;51.976;9.834;2024-02-21T06:19:30;13.40;;;7.40;;
75823;SDS011;64457;51.976;9.834;2024-02-21T06:21:58;16.53;;;7.80;;
75823;SDS011;64457;51.976;9.834;2024-02-21T06:24:25;20.60;;;7.70;;
75823;SDS011;64457;51.976;9.834;2024-02-21T06:26:54;15.10;;;8.90;;
75823;SDS011;64457;51.976;9.834;2024-02-21T06:29:22;16.40;;;8.10;;
75823;SDS011;64457;51.976;9.834;2024-02-21T06:31:50;19.40;;;7.80;;
75823;SDS011;64457;51.976;9.834;2024-02-21T06:34:17;17.50;;;8.40;;
75823;SDS011;64457;51.976;9.834;2024-02-21T06:36:45;16.73;;;8.57;;
75823;SDS011;64457;51.976;9.834;2024-02-21T06:39:12;19.70;;;8.70;;
75823;SDS011;64457;51.976;9.834;2024-02-21T06:41:40;21.53;;;8.67;;
75823;SDS011;64457;51.976;9.834;2024-02-21T06:44:10;21.57;;;8.83;;
75823;SDS011;64457;51.976;9.834;2024-02-21T06:46:37;16.37;;;7.87;;
75823;SDS011;64457;51.976;9.834;2024-02-21T06:49:05;15.10;;;8.27;;
75823;SDS011;64457;51.976;9.834;2024-02-21T06:51:32;25.00;;;10.20;;
75823;SDS011;64457;51.976;9.834;2024-02-21T06:54:02;23.30;;;8.00;;
75823;SDS011;64457;51.976;9.834;2024-02-21T06:56:30;14.07;;;8.07;;
75823;SDS011;64457;51.976;9.834;2024-02-21T06:58:57;14.40;;;7.43;;
75823;SDS011;64457;51.976;9.834;2024-02-21T07:01:26;18.30;;;8.73;;
75823;SDS011;64457;51.976;9.834;2024-02-21T07:03:53;22.97;;;7.83;;
75823;SDS011;64457;51.976;9.834;2024-02-21T07:06:21;19.30;;;8.10;;
75823;SDS011;64457;51.976;9.834;2024-02-21T07:08:50;14.97;;;7.37;;
75823;SDS011;64457;51.976;9.834;2024-02-21T07:11:17;17.07;;;6.90;;
75823;SDS011;64457;51.976;9.834;2024-02-21T07:13:45;22.70;;;8.10;;
75823;SDS011;64457;51.976;9.834;2024-02-21T07:16:13;16.17;;;7.50;;
75823;SDS011;64457;51.976;9.834;2024-02-21T07:18:43;18.30;;;7.73;;
75823;SDS011;64457;51.976;9.834;2024-02-21T07:21:10;14.20;;;7.40;;
75823;SDS011;64457;51.976;9.834;2024-02-21T07:23:40;19.13;;;7.83;;
75823;SDS011;64457;51.976;9.834;2024-02-21T07:26:08;17.07;;;8.73;;
75823;SDS011;64457;51.976;9.834;2024-02-21T07:28:36;14.33;;;8.17;;
75823;SDS011;64457;51.976;9.834;2024-02-21T07:31:04;16.80;;;7.37;;
75823;SDS011;64457;51.976;9.834;2024-02-21T07:33:31;24.53;;;7.70;;
75823;SDS011;64457;51.976;9.834;2024-02-21T07:36:05;14.43;;;8.40;;
75823;SDS011;64457;51.976;9.834;2024-02-21T07:38:33;18.00;;;8.20;;
75823;SDS011;64457;51.976;9.834;2024-02-21T07:41:01;18.97;;;8.33;;
75823;SDS011;64457;51.976;9.834;2024-02-21T07:43:29;16.33;;;7.60;;
75823;SDS011;64457;51.976;9.834;2024-02-21T07:45:58;29.13;;;7.27;;
75823;SDS011;64457;51.976;9.834;2024-02-21T07:48:26;17.07;;;7.20;;
75823;SDS011;64457;51.976;9.834;2024-02-21T07:50:53;20.13;;;8.40;;
75823;SDS011;64457;51.976;9.834;2024-02-21T07:53:22;18.20;;;7.83;;
75823;SDS011;64457;51.976;9.834;2024-02-21T07:55:49;18.33;;;8.50;;
75823;SDS011;64457;51.976;9.834;2024-02-21T07:58:17;14.50;;;7.23;;
75823;SDS011;64457;51.976;9.834;2024-02-21T08:00:44;15.97;;;7.80;;
75823;SDS011;64457;51.976;9.834;2024-02-21T08:03:12;13.53;;;6.77;;
75823;SDS011;64457;51.976;9.834;2024-02-21T08:05:40;12.63;;;7.63;;
75823;SDS011;64457;51.976;9.834;2024-02-21T08:08:08;14.47;;;7.50;;
75823;SDS011;64457;51.976;9.834;2024-02-21T08:10:39;15.27;;;7.50;;
75823;SDS011;64457;51.976;9.834;2024-02-21T08:13:08;17.60;;;7.57;;
75823;SDS011;64457;51.976;9.834;2024-02-21T08:15:35;19.47;;;7.20;;
75823;SDS011;64457;51.976;9.834;2024-02-21T08:18:04;14.03;;;6.60;;
75823;SDS011;64457;51.976;9.834;2024-02-21T08:20:32;15.43;;;7.20;;
75823;SDS011;64457;51.976;9.834;2024-02-21T08:22:59;19.63;;;7.07;;
75823;SDS011;64457;51.976;9.834;2024-02-21T08:25:34;15.17;;;7.30;;
75823;SDS011;64457;51.976;9.834;2024-02-21T08:28:03;15.07;;;6.60;;
75823;SDS011;64457;51.976;9.834;2024-02-21T08:30:33;9.50;;;5.83;;
75823;SDS011;64457;51.976;9.834;2024-02-21T08:33:00;15.57;;;6.43;;
75823;SDS011;64457;51.976;9.834;2024-02-21T08:35:28;16.90;;;7.20;;
75823;SDS011;64457;51.976;9.834;2024-02-21T08:37:56;18.47;;;6.70;;
75823;SDS011;64457;51.976;9.834;2024-02-21T08:40:23;16.20;;;7.90;;
75823;SDS011;64457;51.976;9.834;2024-02-21T08:42:51;14.77;;;7.10;;
75823;SDS011;64457;51.976;9.834;2024-02-21T08:45:20;10.87;;;6.13;;
75823;SDS011;64457;51.976;9.834;2024-02-21T08:47:48;12.77;;;6.70;;
75823;SDS011;64457;51.976;9.834;2024-02-21T08:50:16;17.30;;;6.73;;
75823;SDS011;64457;51.976;9.834;2024-02-21T08:52:43;13.63;;;6.33;;
75823;SDS011;64457;51.976;9.834;2024-02-21T08:55:11;16.43;;;6.57;;
75823;SDS011;64457;51.976;9.834;2024-02-21T08:57:38;14.77;;;6.27;;
75823;SDS011;64457;51.976;9.834;2024-02-21T09:00:06;11.47;;;5.97;;
75823;SDS011;64457;51.976;9.834;2024-02-21T09:02:39;10.90;;;5.23;;
75823;SDS011;64457;51.976;9.834;2024-02-21T09:05:08;12.83;;;5.87;;
75823;SDS011;64457;51.976;9.834;2024-02-21T09:07:35;13.47;;;5.60;;
75823;SDS011;64457;51.976;9.834;2024-02-21T09:10:03;12.60;;;5.30;;
75823;SDS011;64457;51.976;9.834;2024-02-21T09:12:32;9.30;;;5.00;;
75823;SDS011;64457;51.976;9.834;2024-02-21T09:14:59;11.10;;;5.60;;
75823;SDS011;64457;51.976;9.834;2024-02-21T09:17:27;10.47;;;5.10;;
75823;SDS011;64457;51.976;9.834;2024-02-21T09:19:57;12.77;;;5.13;;
75823;SDS011;64457;51.976;9.834;2024-02-21T09:22:28;8.10;;;4.97;;
75823;SDS011;64457;51.976;9.834;2024-02-21T09:24:56;11.27;;;4.73;;
75823;SDS011;64457;51.976;9.834;2024-02-21T09:27:24;12.40;;;5.33;;
75823;SDS011;64457;51.976;9.834;2024-02-21T09:29:52;13.33;;;5.17;;
75823;SDS011;64457;51.976;9.834;2024-02-21T09:32:19;9.90;;;4.80;;
75823;SDS011;64457;51.976;9.834;2024-02-21T09:34:47;11.63;;;4.87;;
75823;SDS011;64457;51.976;9.834;2024-02-21T09:37:16;9.13;;;4.90;;
75823;SDS011;64457;51.976;9.834;2024-02-21T09:39:43;10.30;;;5.17;;
75823;SDS011;64457;51.976;9.834;2024-02-21T09:42:13;10.23;;;5.33;;
75823;SDS011;64457;51.976;9.834;2024-02-21T09:44:44;7.53;;;4.50;;
75823;SDS011;64457;51.976;9.834;2024-02-21T09:47:16;9.57;;;5.10;;
75823;SDS011;64457;51.976;9.834;2024-02-21T09:49:49;9.20;;;4.90;;
75823;SDS011;64457;51.976;9.834;2024-02-21T09:52:23;10.40;;;5.07;;
75823;SDS011;64457;51.976;9.834;2024-02-21T09:54:53;12.90;;;5.03;;
75823;SDS011;64457;51.976;9.834;2024-02-21T09:57:22;16.00;;;6.10;;
75823;SDS011;64457;51.976;9.834;2024-02-21T09:59:51;12.53;;;5.57;;
75823;SDS011;64457;51.976;9.834;2024-02-21T10:02:19;16.00;;;4.90;;
75823;SDS011;64457;51.976;9.834;2024-02-21T10:04:47;10.80;;;5.50;;
75823;SDS011;64457;51.976;9.834;2024-02-21T10:07:14;12.53;;;5.60;;
75823;SDS011;64457;51.976;9.834;2024-02-21T10:09:46;13.13;;;4.83;;
75823;SDS011;64457;51.976;9.834;2024-02-21T10:12:14;8.63;;;4.80;;
75823;SDS011;64457;51.976;9.834;2024-02-21T10:14:44;9.10;;;4.60;;
75823;SDS011;64457;51.976;9.834;2024-02-21T10:17:15;6.73;;;4.63;;
75823;SDS011;64457;51.976;9.834;2024-02-21T10:19:44;11.50;;;5.40;;
75823;SDS011;64457;51.976;9.834;2024-02-21T10:22:12;16.40;;;5.27;;
75823;SDS011;64457;51.976;9.834;2024-02-21T10:24:43;10.10;;;4.67;;
75823;SDS011;64457;51.976;9.834;2024-02-21T10:27:12;9.67;;;4.77;;
75823;SDS011;64457;51.976;9.834;2024-02-21T10:29:40;12.90;;;5.23;;
75823;SDS011;64457;51.976;9.834;2024-02-21T10:32:08;7.43;;;4.53;;
75823;SDS011;64457;51.976;9.834;2024-02-21T10:34:37;8.90;;;4.73;;
75823;SDS011;64457;51.976;9.834;2024-02-21T10:37:08;10.33;;;5.00;;
75823;SDS011;64457;51.976;9.834;2024-02-21T10:39:37;7.73;;;5.27;;
75823;SDS011;64457;51.976;9.834;2024-02-21T10:42:07;9.83;;;4.60;;
75823;SDS011;64457;51.976;9.834;2024-02-21T10:44:39;11.17;;;4.13;;
75823;SDS011;64457;51.976;9.834;2024-02-21T10:47:08;7.37;;;4.30;;
75823;SDS011;64457;51.976;9.834;2024-02-21T10:49:38;8.20;;;4.13;;
75823;SDS011;64457;51.976;9.834;2024-02-21T10:52:12;7.47;;;4.33;;
75823;SDS011;64457;51.976;9.834;2024-02-21T10:54:44;7.80;;;4.60;;
75823;SDS011;64457;51.976;9.834;2024-02-21T10:57:17;14.87;;;5.20;;
75823;SDS011;64457;51.976;9.834;2024-02-21T10:59:46;7.20;;;3.70;;
75823;SDS011;64457;51.976;9.834;2024-02-21T11:02:15;7.43;;;4.10;;
75823;SDS011;64457;51.976;9.834;2024-02-21T11:04:43;7.90;;;3.90;;
75823;SDS011;64457;51.976;9.834;2024-02-21T11:07:12;5.97;;;3.70;;
75823;SDS011;64457;51.976;9.834;2024-02-21T11:09:49;13.90;;;4.50;;
75823;SDS011;64457;51.976;9.834;2024-02-21T11:12:21;6.77;;;4.60;;
75823;SDS011;64457;51.976;9.834;2024-02-21T11:14:50;9.50;;;4.60;;
75823;SDS011;64457;51.976;9.834;2024-02-21T11:17:18;8.60;;;4.03;;
75823;SDS011;64457;51.976;9.834;2024-02-21T11:19:49;13.30;;;5.10;;
75823;SDS011;64457;51.976;9.834;2024-02-21T11:22:17;10.20;;;6.53;;
75823;SDS011;64457;51.976;9.834;2024-02-21T11:24:48;10.80;;;5.63;;
75823;SDS011;64457;51.976;9.834;2024-02-21T11:27:16;10.00;;;5.57;;
75823;SDS011;64457;51.976;9.834;2024-02-21T11:29:55;16.50;;;6.87;;
75823;SDS011;64457;51.976;9.834;2024-02-21T11:32:25;10.83;;;6.30;;
75823;SDS011;64457;51.976;9.834;2024-02-21T11:34:55;13.50;;;6.73;;
75823;SDS011;64457;51.976;9.834;2024-02-21T11:37:26;9.50;;;5.63;;
75823;SDS011;64457;51.976;9.834;2024-02-21T11:39:56;13.57;;;7.47;;
75823;SDS011;64457;51.976;9.834;2024-02-21T11:42:26;11.30;;;6.30;;
75823;SDS011;64457;51.976;9.834;2024-02-21T11:44:55;11.57;;;5.53;;
75823;SDS011;64457;51.976;9.834;2024-02-21T11:47:23;9.97;;;6.67;;
75823;SDS011;64457;51.976;9.834;2024-02-21T11:49:50;10.97;;;7.20;;
75823;SDS011;64457;51.976;9.834;2024-02-21T11:52:21;10.63;;;5.97;;
75823;SDS011;64457;51.976;9.834;2024-02-21T11:54:50;12.47;;;6.33;;
75823;SDS011;64457;51.976;9.834;2024-02-21T11:57:19;11.53;;;5.90;;
75823;SDS011;64457;51.976;9.834;2024-02-21T11:59:48;11.60;;;5.90;;
75823;SDS011;64457;51.976;9.834;2024-02-21T12:02:20;11.07;;;5.80;;
75823;SDS011;64457;51.976;9.834;2024-02-21T12:04:47;9.73;;;5.37;;
75823;SDS011;64457;51.976;9.834;2024-02-21T12:07:15;11.90;;;5.50;;
75823;SDS011;64457;51.976;9.834;2024-02-21T12:09:43;7.80;;;5.20;;
75823;SDS011;64457;51.976;9.834;2024-02-21T12:12:10;9.40;;;5.27;;
75823;SDS011;64457;51.976;9.834;2024-02-21T12:14:37;9.90;;;4.83;;
75823;SDS011;64457;51.976;9.834;2024-02-21T12:17:06;10.10;;;4.87;;
75823;SDS011;64457;51.976;9.834;2024-02-21T12:19:34;11.03;;;5.07;;
75823;SDS011;64457;51.976;9.834;2024-02-21T12:22:01;8.40;;;4.70;;
75823;SDS011;64457;51.976;9.834;2024-02-21T12:24:31;12.10;;;5.47;;
75823;SDS011;64457;51.976;9.834;2024-02-21T12:26:58;10.13;;;4.87;;
75823;SDS011;64457;51.976;9.834;2024-02-21T12:29:29;10.27;;;4.50;;
75823;SDS011;64457;51.976;9.834;2024-02-21T12:31:56;8.93;;;3.97;;
75823;SDS011;64457;51.976;9.834;2024-02-21T12:34:25;7.07;;;3.80;;
75823;SDS011;64457;51.976;9.834;2024-02-21T12:36:53;7.33;;;4.13;;
75823;SDS011;64457;51.976;9.834;2024-02-21T12:39:21;7.60;;;3.97;;
75823;SDS011;64457;51.976;9.834;2024-02-21T12:41:48;3.17;;;2.87;;
75823;SDS011;64457;51.976;9.834;2024-02-21T12:44:16;9.73;;;3.60;;
75823;SDS011;64457;51.976;9.834;2024-02-21T12:46:43;4.80;;;2.97;;
75823;SDS011;64457;51.976;9.834;2024-02-21T12:49:11;5.60;;;2.90;;
75823;SDS011;64457;51.976;9.834;2024-02-21T12:51:40;7.83;;;3.00;;
75823;SDS011;64457;51.976;9.834;2024-02-21T12:54:07;8.73;;;3.43;;
75823;SDS011;64457;51.976;9.834;2024-02-21T12:56:36;8.03;;;3.33;;
75823;SDS011;64457;51.976;9.834;2024-02-21T12:59:05;12.63;;;3.50;;
75823;SDS011;64457;51.976;9.834;2024-02-21T13:01:34;8.20;;;2.97;;
75823;SDS011;64457;51.976;9.834;2024-02-21T13:04:01;6.90;;;3.10;;
75823;SDS011;64457;51.976;9.834;2024-02-21T13:06:29;10.90;;;3.60;;
75823;SDS011;64457;51.976;9.834;2024-02-21T13:08:58;7.40;;;3.43;;
75823;SDS011;64457;51.976;9.834;2024-02-21T13:11:29;9.10;;;2.90;;
75823;SDS011;64457;51.976;9.834;2024-02-21T13:13:56;6.93;;;3.20;;
75823;SDS011;64457;51.976;9.834;2024-02-21T13:16:24;5.63;;;2.40;;
75823;SDS011;64457;51.976;9.834;2024-02-21T13:18:51;8.10;;;3.03;;
75823;SDS011;64457;51.976;9.834;2024-02-21T13:21:19;9.03;;;3.00;;
75823;SDS011;64457;51.976;9.834;2024-02-21T13:23:47;5.77;;;2.90;;
75823;SDS011;64457;51.976;9.834;2024-02-21T13:26:16;6.43;;;2.80;;
75823;SDS011;64457;51.976;9.834;2024-02-21T13:28:44;5.30;;;2.57;;
75823;SDS011;64457;51.976;9.834;2024-02-21T13:31:13;6.87;;;2.70;;
75823;SDS011;64457;51.976;9.834;2024-02-21T13:33:42;8.90;;;2.80;;
75823;SDS011;64457;51.976;9.834;2024-02-21T13:36:10;9.57;;;2.30;;
75823;SDS011;64457;51.976;9.834;2024-02-21T13:38:38;4.97;;;2.30;;
75823;SDS011;64457;51.976;9.834;2024-02-21T13:41:07;7.53;;;3.00;;
75823;SDS011;64457;51.976;9.834;2024-02-21T13:43:38;4.50;;;2.57;;
75823;SDS011;64457;51.976;9.834;2024-02-21T13:46:08;5.93;;;3.10;;
75823;SDS011;64457;51.976;9.834;2024-02-21T13:48:38;7.20;;;2.97;;
75823;SDS011;64457;51.976;9.834;2024-02-21T13:51:08;9.53;;;2.83;;
75823;SDS011;64457;51.976;9.834;2024-02-21T13:53:37;5.47;;;2.90;;
75823;SDS011;64457;51.976;9.834;2024-02-21T13:56:08;5.40;;;2.37;;
75823;SDS011;64457;51.976;9.834;2024-02-21T13:58:36;6.10;;;2.50;;
75823;SDS011;64457;51.976;9.834;2024-02-21T14:01:07;5.00;;;2.77;;
75823;SDS011;64457;51.976;9.834;2024-02-21T14:03:40;6.43;;;2.27;;
75823;SDS011;64457;51.976;9.834;2024-02-21T14:06:08;7.03;;;3.07;;
75823;SDS011;64457;51.976;9.834;2024-02-21T14:08:37;5.00;;;2.47;;
75823;SDS011;64457;51.976;9.834;2024-02-21T14:11:05;9.03;;;3.20;;
75823;SDS011;64457;51.976;9.834;2024-02-21T14:13:35;8.00;;;2.93;;
75823;SDS011;64457;51.976;9.834;2024-02-21T14:16:08;5.57;;;2.57;;
75823;SDS011;64457;51.976;9.834;2024-02-21T14:18:38;6.00;;;2.80;;
75823;SDS011;64457;51.976;9.834;2024-02-21T14:21:07;6.00;;;3.00;;
75823;SDS011;64457;51.976;9.834;2024-02-21T14:23:38;4.43;;;2.33;;
75823;SDS011;64457;51.976;9.834;2024-02-21T14:26:06;8.27;;;2.80;;
75823;SDS011;64457;51.976;9.834;2024-02-21T14:28:34;8.50;;;2.80;;
75823;SDS011;64457;51.976;9.834;2024-02-21T14:31:06;7.10;;;3.10;;
75823;SDS011;64457;51.976;9.834;2024-02-21T14:33:34;7.33;;;2.67;;
75823;SDS011;64457;51.976;9.834;2024-02-21T14:36:02;8.53;;;3.07;;
75823;SDS011;64457;51.976;9.834;2024-02-21T14:38:31;5.80;;;3.07;;
75823;SDS011;64457;51.976;9.834;2024-02-21T14:40:58;7.87;;;3.03;;
75823;SDS011;64457;51.976;9.834;2024-02-21T14:43:27;16.13;;;5.27;;